sensor_id;sensor_type;location;lat;lon;timestamp;P1;durP1;ratioP1;P2;durP2;ratioP2
14472;SDS011;7322;50.872;4.386;2023-06-14T00:06:10;5.35;;;4.88;;
14472;SDS011;7322;50.872;4.386;2023-06-14T00:08:37;4.80;;;4.40;;
14472;SDS011;7322;50.872;4.386;2023-06-14T00:11:05;4.75;;;4.35;;
14472;SDS011;7322;50.872;4.386;2023-06-14T00:13:32;4.80;;;4.40;;
14472;SDS011;7322;50.872;4.386;2023-06-14T00:16:00;4.80;;;4.35;;
14472;SDS011;7322;50.872;4.386;2023-06-14T00:18:28;4.68;;;4.28;;
14472;SDS011;7322;50.872;4.386;2023-06-14T00:26:30;4.50;;;4.18;;
14472;SDS011;7322;50.872;4.386;2023-06-14T00:28:59;4.93;;;4.20;;
14472;SDS011;7322;50.872;4.386;2023-06-14T00:34:13;4.68;;;4.28;;
14472;SDS011;7322;50.872;4.386;2023-06-14T00:36:45;4.53;;;4.22;;
14472;SDS011;7322;50.872;4.386;2023-06-14T00:39:14;5.05;;;4.55;;
14472;SDS011;7322;50.872;4.386;2023-06-14T00:41:41;4.50;;;4.10;;
14472;SDS011;7322;50.872;4.386;2023-06-14T00:47:06;4.50;;;4.15;;
14472;SDS011;7322;50.872;4.386;2023-06-14T00:52:48;4.43;;;4.03;;
14472;SDS011;7322;50.872;4.386;2023-06-14T00:57:51;4.60;;;4.25;;
14472;SDS011;7322;50.872;4.386;2023-06-14T01:00:19;4.60;;;4.20;;
14472;SDS011;7322;50.872;4.386;2023-06-14T01:02:53;4.78;;;4.35;;
14472;SDS011;7322;50.872;4.386;2023-06-14T01:05:20;4.18;;;3.88;;
14472;SDS011;7322;50.872;4.386;2023-06-14T01:07:51;5.40;;;4.90;;
14472;SDS011;7322;50.872;4.386;2023-06-14T01:10:41;4.70;;;4.30;;
14472;SDS011;7322;50.872;4.386;2023-06-14T01:13:19;4.82;;;4.43;;
14472;SDS011;7322;50.872;4.386;2023-06-14T01:15:48;4.85;;;4.40;;
14472;SDS011;7322;50.872;4.386;2023-06-14T01:20:54;4.90;;;3.83;;
14472;SDS011;7322;50.872;4.386;2023-06-14T01:26:00;4.38;;;4.03;;
14472;SDS011;7322;50.872;4.386;2023-06-14T01:28:28;4.05;;;3.75;;
14472;SDS011;7322;50.872;4.386;2023-06-14T01:33:37;4.68;;;4.28;;
14472;SDS011;7322;50.872;4.386;2023-06-14T01:39:07;4.60;;;4.20;;
14472;SDS011;7322;50.872;4.386;2023-06-14T01:41:43;4.47;;;4.07;;
14472;SDS011;7322;50.872;4.386;2023-06-14T01:44:14;5.35;;;4.30;;
14472;SDS011;7322;50.872;4.386;2023-06-14T01:46:44;5.22;;;4.25;;
14472;SDS011;7322;50.872;4.386;2023-06-14T01:52:08;4.70;;;4.30;;
14472;SDS011;7322;50.872;4.386;2023-06-14T01:54:43;4.63;;;4.22;;
14472;SDS011;7322;50.872;4.386;2023-06-14T01:57:12;4.80;;;4.30;;
14472;SDS011;7322;50.872;4.386;2023-06-14T01:59:44;4.40;;;4.10;;
14472;SDS011;7322;50.872;4.386;2023-06-14T02:02:16;4.47;;;4.07;;
14472;SDS011;7322;50.872;4.386;2023-06-14T02:04:52;4.72;;;4.32;;
14472;SDS011;7322;50.872;4.386;2023-06-14T02:07:22;4.43;;;4.03;;
14472;SDS011;7322;50.872;4.386;2023-06-14T02:09:51;5.00;;;4.50;;
14472;SDS011;7322;50.872;4.386;2023-06-14T02:12:21;4.53;;;4.13;;
14472;SDS011;7322;50.872;4.386;2023-06-14T02:15:02;4.68;;;4.28;;
14472;SDS011;7322;50.872;4.386;2023-06-14T02:20:41;4.68;;;4.28;;
14472;SDS011;7322;50.872;4.386;2023-06-14T02:29:11;4.57;;;4.18;;
14472;SDS011;7322;50.872;4.386;2023-06-14T02:35:02;4.80;;;4.40;;
14472;SDS011;7322;50.872;4.386;2023-06-14T02:37:36;4.53;;;4.13;;
14472;SDS011;7322;50.872;4.386;2023-06-14T02:40:11;5.20;;;4.60;;
14472;SDS011;7322;50.872;4.386;2023-06-14T02:42:48;4.88;;;4.47;;
14472;SDS011;7322;50.872;4.386;2023-06-14T02:45:21;4.97;;;4.18;;
14472;SDS011;7322;50.872;4.386;2023-06-14T02:47:50;4.40;;;4.10;;
14472;SDS011;7322;50.872;4.386;2023-06-14T02:50:33;4.55;;;4.15;;
14472;SDS011;7322;50.872;4.386;2023-06-14T02:53:10;5.28;;;4.78;;
14472;SDS011;7322;50.872;4.386;2023-06-14T02:55:39;5.15;;;4.75;;
14472;SDS011;7322;50.872;4.386;2023-06-14T02:58:13;5.35;;;4.15;;
14472;SDS011;7322;50.872;4.386;2023-06-14T03:00:41;4.93;;;4.45;;
14472;SDS011;7322;50.872;4.386;2023-06-14T03:03:18;4.40;;;4.00;;
14472;SDS011;7322;50.872;4.386;2023-06-14T03:11:56;4.80;;;4.25;;
14472;SDS011;7322;50.872;4.386;2023-06-14T03:14:33;4.57;;;4.20;;
14472;SDS011;7322;50.872;4.386;2023-06-14T03:17:10;4.93;;;4.45;;
14472;SDS011;7322;50.872;4.386;2023-06-14T03:19:42;4.82;;;4.30;;
14472;SDS011;7322;50.872;4.386;2023-06-14T03:22:13;5.15;;;4.65;;
14472;SDS011;7322;50.872;4.386;2023-06-14T03:27:24;4.38;;;4.07;;
14472;SDS011;7322;50.872;4.386;2023-06-14T03:32:37;5.07;;;4.57;;
14472;SDS011;7322;50.872;4.386;2023-06-14T03:35:14;5.00;;;4.50;;
14472;SDS011;7322;50.872;4.386;2023-06-14T03:37:43;4.38;;;3.97;;
14472;SDS011;7322;50.872;4.386;2023-06-14T03:40:11;4.70;;;4.30;;
14472;SDS011;7322;50.872;4.386;2023-06-14T03:42:39;5.10;;;4.25;;
14472;SDS011;7322;50.872;4.386;2023-06-14T03:45:10;4.85;;;4.35;;
14472;SDS011;7322;50.872;4.386;2023-06-14T03:47:45;4.68;;;4.28;;
14472;SDS011;7322;50.872;4.386;2023-06-14T03:50:14;5.07;;;4.65;;
14472;SDS011;7322;50.872;4.386;2023-06-14T03:52:41;5.30;;;4.80;;
14472;SDS011;7322;50.872;4.386;2023-06-14T03:55:10;5.38;;;4.88;;
14472;SDS011;7322;50.872;4.386;2023-06-14T03:57:39;4.75;;;4.28;;
14472;SDS011;7322;50.872;4.386;2023-06-14T04:00:14;5.53;;;4.90;;
14472;SDS011;7322;50.872;4.386;2023-06-14T04:02:50;5.05;;;4.65;;
14472;SDS011;7322;50.872;4.386;2023-06-14T04:08:14;5.18;;;4.70;;
14472;SDS011;7322;50.872;4.386;2023-06-14T04:19:30;5.15;;;4.68;;
14472;SDS011;7322;50.872;4.386;2023-06-14T04:22:04;4.80;;;4.40;;
14472;SDS011;7322;50.872;4.386;2023-06-14T04:24:32;4.57;;;4.25;;
14472;SDS011;7322;50.872;4.386;2023-06-14T04:27:00;4.65;;;4.25;;
14472;SDS011;7322;50.872;4.386;2023-06-14T04:29:28;4.57;;;4.18;;
14472;SDS011;7322;50.872;4.386;2023-06-14T04:31:58;4.78;;;4.32;;
14472;SDS011;7322;50.872;4.386;2023-06-14T04:34:27;5.70;;;4.43;;
14472;SDS011;7322;50.872;4.386;2023-06-14T04:36:58;4.75;;;4.35;;
14472;SDS011;7322;50.872;4.386;2023-06-14T04:39:26;4.55;;;4.15;;
14472;SDS011;7322;50.872;4.386;2023-06-14T04:42:04;4.50;;;4.20;;
14472;SDS011;7322;50.872;4.386;2023-06-14T04:47:09;4.78;;;4.38;;
14472;SDS011;7322;50.872;4.386;2023-06-14T04:49:37;4.78;;;4.38;;
14472;SDS011;7322;50.872;4.386;2023-06-14T04:52:09;4.80;;;4.40;;
14472;SDS011;7322;50.872;4.386;2023-06-14T04:54:45;4.90;;;4.50;;
14472;SDS011;7322;50.872;4.386;2023-06-14T04:57:13;4.70;;;4.30;;
14472;SDS011;7322;50.872;4.386;2023-06-14T04:59:43;5.05;;;4.20;;
14472;SDS011;7322;50.872;4.386;2023-06-14T05:02:11;4.82;;;4.18;;
14472;SDS011;7322;50.872;4.386;2023-06-14T05:04:39;4.85;;;4.45;;
14472;SDS011;7322;50.872;4.386;2023-06-14T05:07:24;4.63;;;4.22;;
14472;SDS011;7322;50.872;4.386;2023-06-14T05:09:58;4.60;;;4.18;;
14472;SDS011;7322;50.872;4.386;2023-06-14T05:15:31;5.13;;;4.18;;
14472;SDS011;7322;50.872;4.386;2023-06-14T05:17:59;4.60;;;4.20;;
14472;SDS011;7322;50.872;4.386;2023-06-14T05:20:28;4.97;;;4.57;;
14472;SDS011;7322;50.872;4.386;2023-06-14T05:25:35;4.97;;;4.35;;
14472;SDS011;7322;50.872;4.386;2023-06-14T05:28:02;4.88;;;4.47;;
14472;SDS011;7322;50.872;4.386;2023-06-14T05:33:03;4.90;;;4.50;;
14472;SDS011;7322;50.872;4.386;2023-06-14T05:38:29;4.28;;;3.97;;
14472;SDS011;7322;50.872;4.386;2023-06-14T05:40:55;5.28;;;4.63;;
14472;SDS011;7322;50.872;4.386;2023-06-14T05:43:23;4.55;;;4.15;;
14472;SDS011;7322;50.872;4.386;2023-06-14T05:45:51;5.45;;;4.95;;
14472;SDS011;7322;50.872;4.386;2023-06-14T05:48:18;12.60;;;5.47;;
14472;SDS011;7322;50.872;4.386;2023-06-14T05:50:45;5.13;;;4.63;;
14472;SDS011;7322;50.872;4.386;2023-06-14T05:53:12;10.82;;;6.10;;
14472;SDS011;7322;50.872;4.386;2023-06-14T05:55:50;9.95;;;6.07;;
14472;SDS011;7322;50.872;4.386;2023-06-14T06:00:51;11.18;;;6.15;;
14472;SDS011;7322;50.872;4.386;2023-06-14T06:03:26;8.32;;;6.70;;
14472;SDS011;7322;50.872;4.386;2023-06-14T06:05:56;9.02;;;6.57;;
14472;SDS011;7322;50.872;4.386;2023-06-14T06:08:38;11.13;;;6.45;;
14472;SDS011;7322;50.872;4.386;2023-06-14T06:11:08;8.57;;;6.65;;
14472;SDS011;7322;50.872;4.386;2023-06-14T06:13:35;8.15;;;6.20;;
14472;SDS011;7322;50.872;4.386;2023-06-14T06:16:17;10.88;;;6.40;;
14472;SDS011;7322;50.872;4.386;2023-06-14T06:18:45;8.48;;;6.25;;
14472;SDS011;7322;50.872;4.386;2023-06-14T06:21:13;10.30;;;6.50;;
14472;SDS011;7322;50.872;4.386;2023-06-14T06:23:42;12.60;;;6.05;;
14472;SDS011;7322;50.872;4.386;2023-06-14T06:26:13;9.98;;;7.20;;
14472;SDS011;7322;50.872;4.386;2023-06-14T06:28:46;8.57;;;6.65;;
14472;SDS011;7322;50.872;4.386;2023-06-14T06:31:13;8.43;;;6.43;;
14472;SDS011;7322;50.872;4.386;2023-06-14T06:33:40;11.45;;;6.50;;
14472;SDS011;7322;50.872;4.386;2023-06-14T06:36:07;10.65;;;6.10;;
14472;SDS011;7322;50.872;4.386;2023-06-14T06:38:34;10.38;;;6.15;;
14472;SDS011;7322;50.872;4.386;2023-06-14T06:41:01;8.88;;;6.00;;
14472;SDS011;7322;50.872;4.386;2023-06-14T06:43:30;8.63;;;5.88;;
14472;SDS011;7322;50.872;4.386;2023-06-14T06:45:57;8.25;;;6.18;;
14472;SDS011;7322;50.872;4.386;2023-06-14T06:48:24;9.10;;;6.00;;
14472;SDS011;7322;50.872;4.386;2023-06-14T06:50:51;7.22;;;5.78;;
14472;SDS011;7322;50.872;4.386;2023-06-14T06:53:27;10.38;;;6.15;;
14472;SDS011;7322;50.872;4.386;2023-06-14T06:55:54;9.32;;;6.15;;
14472;SDS011;7322;50.872;4.386;2023-06-14T06:58:21;11.70;;;5.82;;
14472;SDS011;7322;50.872;4.386;2023-06-14T07:00:50;11.10;;;6.07;;
14472;SDS011;7322;50.872;4.386;2023-06-14T07:03:19;9.85;;;5.55;;
14472;SDS011;7322;50.872;4.386;2023-06-14T07:05:46;8.52;;;6.10;;
14472;SDS011;7322;50.872;4.386;2023-06-14T07:08:31;10.00;;;6.18;;
14472;SDS011;7322;50.872;4.386;2023-06-14T07:10:59;6.95;;;5.43;;
14472;SDS011;7322;50.872;4.386;2023-06-14T07:16:02;6.78;;;5.80;;
14472;SDS011;7322;50.872;4.386;2023-06-14T07:18:30;5.88;;;5.28;;
14472;SDS011;7322;50.872;4.386;2023-06-14T07:20:57;7.75;;;5.70;;
14472;SDS011;7322;50.872;4.386;2023-06-14T07:23:26;8.60;;;5.63;;
14472;SDS011;7322;50.872;4.386;2023-06-14T07:25:53;8.13;;;5.88;;
14472;SDS011;7322;50.872;4.386;2023-06-14T07:28:20;7.95;;;5.82;;
14472;SDS011;7322;50.872;4.386;2023-06-14T07:30:51;7.03;;;5.50;;
14472;SDS011;7322;50.872;4.386;2023-06-14T07:33:24;5.47;;;4.88;;
14472;SDS011;7322;50.872;4.386;2023-06-14T07:35:57;7.20;;;5.32;;
14472;SDS011;7322;50.872;4.386;2023-06-14T07:38:31;7.70;;;5.45;;
14472;SDS011;7322;50.872;4.386;2023-06-14T07:41:01;6.75;;;5.22;;
14472;SDS011;7322;50.872;4.386;2023-06-14T07:43:33;7.60;;;5.38;;
14472;SDS011;7322;50.872;4.386;2023-06-14T07:48:55;5.95;;;5.35;;
14472;SDS011;7322;50.872;4.386;2023-06-14T07:51:24;7.40;;;5.20;;
14472;SDS011;7322;50.872;4.386;2023-06-14T07:53:52;5.18;;;4.70;;
14472;SDS011;7322;50.872;4.386;2023-06-14T07:56:19;7.85;;;5.57;;
14472;SDS011;7322;50.872;4.386;2023-06-14T07:58:46;9.80;;;5.43;;
14472;SDS011;7322;50.872;4.386;2023-06-14T08:01:13;6.68;;;5.38;;
14472;SDS011;7322;50.872;4.386;2023-06-14T08:03:40;6.03;;;5.43;;
14472;SDS011;7322;50.872;4.386;2023-06-14T08:06:08;11.23;;;5.63;;
14472;SDS011;7322;50.872;4.386;2023-06-14T08:08:36;7.43;;;5.05;;
14472;SDS011;7322;50.872;4.386;2023-06-14T08:11:03;5.63;;;4.70;;
14472;SDS011;7322;50.872;4.386;2023-06-14T08:13:30;6.20;;;4.60;;
14472;SDS011;7322;50.872;4.386;2023-06-14T08:15:57;5.75;;;5.22;;
14472;SDS011;7322;50.872;4.386;2023-06-14T08:18:26;5.85;;;5.28;;
14472;SDS011;7322;50.872;4.386;2023-06-14T08:20:53;6.45;;;5.38;;
14472;SDS011;7322;50.872;4.386;2023-06-14T08:23:25;7.03;;;5.25;;
14472;SDS011;7322;50.872;4.386;2023-06-14T08:25:52;5.55;;;4.90;;
14472;SDS011;7322;50.872;4.386;2023-06-14T08:28:19;5.88;;;4.80;;
14472;SDS011;7322;50.872;4.386;2023-06-14T08:30:46;5.38;;;4.88;;
14472;SDS011;7322;50.872;4.386;2023-06-14T08:33:13;5.97;;;4.70;;
14472;SDS011;7322;50.872;4.386;2023-06-14T08:35:41;7.50;;;4.78;;
14472;SDS011;7322;50.872;4.386;2023-06-14T08:38:08;5.88;;;4.80;;
14472;SDS011;7322;50.872;4.386;2023-06-14T08:40:38;7.47;;;5.03;;
14472;SDS011;7322;50.872;4.386;2023-06-14T08:43:07;5.32;;;4.80;;
14472;SDS011;7322;50.872;4.386;2023-06-14T08:45:34;5.28;;;4.70;;
14472;SDS011;7322;50.872;4.386;2023-06-14T08:48:02;6.40;;;5.20;;
14472;SDS011;7322;50.872;4.386;2023-06-14T08:50:34;7.45;;;5.18;;
14472;SDS011;7322;50.872;4.386;2023-06-14T08:53:06;5.72;;;5.22;;
14472;SDS011;7322;50.872;4.386;2023-06-14T08:55:39;6.53;;;4.82;;
14472;SDS011;7322;50.872;4.386;2023-06-14T08:58:07;5.32;;;4.70;;
14472;SDS011;7322;50.872;4.386;2023-06-14T09:00:34;5.50;;;5.00;;
14472;SDS011;7322;50.872;4.386;2023-06-14T09:03:02;5.90;;;5.07;;
14472;SDS011;7322;50.872;4.386;2023-06-14T09:05:30;6.93;;;5.68;;
14472;SDS011;7322;50.872;4.386;2023-06-14T09:07:57;5.75;;;5.10;;
14472;SDS011;7322;50.872;4.386;2023-06-14T09:10:25;10.18;;;5.40;;
14472;SDS011;7322;50.872;4.386;2023-06-14T09:12:56;6.65;;;5.28;;
14472;SDS011;7322;50.872;4.386;2023-06-14T09:15:36;6.82;;;5.93;;
14472;SDS011;7322;50.872;4.386;2023-06-14T09:18:03;7.88;;;5.55;;
14472;SDS011;7322;50.872;4.386;2023-06-14T09:20:32;6.75;;;5.00;;
14472;SDS011;7322;50.872;4.386;2023-06-14T09:22:59;6.38;;;5.38;;
14472;SDS011;7322;50.872;4.386;2023-06-14T09:25:27;7.22;;;5.70;;
14472;SDS011;7322;50.872;4.386;2023-06-14T09:27:55;6.28;;;5.38;;
14472;SDS011;7322;50.872;4.386;2023-06-14T09:30:22;5.43;;;4.93;;
14472;SDS011;7322;50.872;4.386;2023-06-14T09:32:50;5.53;;;5.03;;
14472;SDS011;7322;50.872;4.386;2023-06-14T09:35:17;5.80;;;5.13;;
14472;SDS011;7322;50.872;4.386;2023-06-14T09:37:44;6.43;;;5.07;;
14472;SDS011;7322;50.872;4.386;2023-06-14T09:40:11;6.82;;;4.97;;
14472;SDS011;7322;50.872;4.386;2023-06-14T09:42:38;7.50;;;5.20;;
14472;SDS011;7322;50.872;4.386;2023-06-14T09:45:08;6.53;;;5.35;;
14472;SDS011;7322;50.872;4.386;2023-06-14T09:47:38;5.78;;;5.18;;
14472;SDS011;7322;50.872;4.386;2023-06-14T09:50:06;5.88;;;5.20;;
14472;SDS011;7322;50.872;4.386;2023-06-14T09:52:33;7.57;;;5.55;;
14472;SDS011;7322;50.872;4.386;2023-06-14T09:55:01;6.95;;;5.40;;
14472;SDS011;7322;50.872;4.386;2023-06-14T09:57:38;9.27;;;5.15;;
14472;SDS011;7322;50.872;4.386;2023-06-14T10:00:11;5.40;;;4.90;;
14472;SDS011;7322;50.872;4.386;2023-06-14T10:02:40;5.80;;;5.10;;
14472;SDS011;7322;50.872;4.386;2023-06-14T10:05:15;9.57;;;4.95;;
14472;SDS011;7322;50.872;4.386;2023-06-14T10:07:48;8.77;;;5.15;;
14472;SDS011;7322;50.872;4.386;2023-06-14T10:10:19;6.32;;;4.88;;
14472;SDS011;7322;50.872;4.386;2023-06-14T10:12:46;5.60;;;5.10;;
14472;SDS011;7322;50.872;4.386;2023-06-14T10:15:17;5.93;;;5.07;;
14472;SDS011;7322;50.872;4.386;2023-06-14T10:17:48;6.20;;;4.57;;
14472;SDS011;7322;50.872;4.386;2023-06-14T10:20:26;5.43;;;4.65;;
14472;SDS011;7322;50.872;4.386;2023-06-14T10:23:03;6.30;;;4.75;;
14472;SDS011;7322;50.872;4.386;2023-06-14T10:25:35;6.40;;;5.00;;
14472;SDS011;7322;50.872;4.386;2023-06-14T10:28:03;5.22;;;4.20;;
14472;SDS011;7322;50.872;4.386;2023-06-14T10:33:35;5.30;;;4.80;;
14472;SDS011;7322;50.872;4.386;2023-06-14T10:36:09;6.60;;;4.90;;
14472;SDS011;7322;50.872;4.386;2023-06-14T10:38:38;5.25;;;4.22;;
14472;SDS011;7322;50.872;4.386;2023-06-14T10:41:05;6.60;;;4.53;;
14472;SDS011;7322;50.872;4.386;2023-06-14T10:43:33;5.22;;;4.47;;
14472;SDS011;7322;50.872;4.386;2023-06-14T10:46:17;5.95;;;4.80;;
14472;SDS011;7322;50.872;4.386;2023-06-14T10:48:49;5.25;;;4.75;;
14472;SDS011;7322;50.872;4.386;2023-06-14T10:51:24;5.43;;;4.93;;
14472;SDS011;7322;50.872;4.386;2023-06-14T10:53:51;6.55;;;4.70;;
14472;SDS011;7322;50.872;4.386;2023-06-14T10:56:28;4.88;;;4.30;;
14472;SDS011;7322;50.872;4.386;2023-06-14T10:58:56;6.85;;;4.97;;
14472;SDS011;7322;50.872;4.386;2023-06-14T11:01:31;5.57;;;4.55;;
14472;SDS011;7322;50.872;4.386;2023-06-14T11:04:08;4.72;;;4.22;;
14472;SDS011;7322;50.872;4.386;2023-06-14T11:12:17;6.03;;;4.65;;
14472;SDS011;7322;50.872;4.386;2023-06-14T11:14:47;5.70;;;4.63;;
14472;SDS011;7322;50.872;4.386;2023-06-14T11:17:16;5.22;;;4.55;;
14472;SDS011;7322;50.872;4.386;2023-06-14T11:19:43;5.60;;;4.40;;
14472;SDS011;7322;50.872;4.386;2023-06-14T11:22:11;6.15;;;4.15;;
14472;SDS011;7322;50.872;4.386;2023-06-14T11:24:39;6.90;;;4.35;;
14472;SDS011;7322;50.872;4.386;2023-06-14T11:27:06;6.05;;;4.10;;
14472;SDS011;7322;50.872;4.386;2023-06-14T11:32:32;4.43;;;3.63;;
14472;SDS011;7322;50.872;4.386;2023-06-14T11:35:00;5.43;;;4.38;;
14472;SDS011;7322;50.872;4.386;2023-06-14T11:37:29;4.05;;;3.65;;
14472;SDS011;7322;50.872;4.386;2023-06-14T11:39:58;4.13;;;3.67;;
14472;SDS011;7322;50.872;4.386;2023-06-14T11:42:26;5.03;;;3.90;;
14472;SDS011;7322;50.872;4.386;2023-06-14T11:44:54;4.07;;;3.70;;
14472;SDS011;7322;50.872;4.386;2023-06-14T11:47:21;4.07;;;3.78;;
14472;SDS011;7322;50.872;4.386;2023-06-14T11:49:50;4.90;;;4.28;;
14472;SDS011;7322;50.872;4.386;2023-06-14T11:52:17;5.03;;;3.75;;
14472;SDS011;7322;50.872;4.386;2023-06-14T11:54:48;4.30;;;3.55;;
14472;SDS011;7322;50.872;4.386;2023-06-14T11:57:17;4.35;;;3.60;;
14472;SDS011;7322;50.872;4.386;2023-06-14T11:59:44;4.07;;;3.67;;
14472;SDS011;7322;50.872;4.386;2023-06-14T12:02:14;3.90;;;3.50;;
14472;SDS011;7322;50.872;4.386;2023-06-14T12:04:41;4.38;;;3.92;;
14472;SDS011;7322;50.872;4.386;2023-06-14T12:07:12;3.95;;;3.58;;
14472;SDS011;7322;50.872;4.386;2023-06-14T12:09:43;4.28;;;3.90;;
14472;SDS011;7322;50.872;4.386;2023-06-14T12:12:35;4.32;;;3.92;;
14472;SDS011;7322;50.872;4.386;2023-06-14T12:15:05;4.47;;;4.07;;
14472;SDS011;7322;50.872;4.386;2023-06-14T12:17:34;4.05;;;3.63;;
14472;SDS011;7322;50.872;4.386;2023-06-14T12:20:08;4.47;;;3.80;;
14472;SDS011;7322;50.872;4.386;2023-06-14T12:25:29;3.90;;;3.60;;
14472;SDS011;7322;50.872;4.386;2023-06-14T12:27:57;4.75;;;3.80;;
14472;SDS011;7322;50.872;4.386;2023-06-14T12:30:26;3.92;;;3.63;;
14472;SDS011;7322;50.872;4.386;2023-06-14T12:32:54;4.30;;;3.60;;
14472;SDS011;7322;50.872;4.386;2023-06-14T12:38:09;4.38;;;3.40;;
14472;SDS011;7322;50.872;4.386;2023-06-14T12:40:36;3.95;;;3.65;;
14472;SDS011;7322;50.872;4.386;2023-06-14T12:43:04;3.95;;;3.55;;
14472;SDS011;7322;50.872;4.386;2023-06-14T12:45:31;4.25;;;3.85;;
14472;SDS011;7322;50.872;4.386;2023-06-14T12:47:58;3.85;;;3.55;;
14472;SDS011;7322;50.872;4.386;2023-06-14T12:50:25;4.00;;;3.33;;
14472;SDS011;7322;50.872;4.386;2023-06-14T12:52:52;4.13;;;3.25;;
14472;SDS011;7322;50.872;4.386;2023-06-14T12:55:20;4.95;;;3.67;;
14472;SDS011;7322;50.872;4.386;2023-06-14T12:57:47;3.53;;;3.22;;
14472;SDS011;7322;50.872;4.386;2023-06-14T13:00:14;3.90;;;3.55;;
14472;SDS011;7322;50.872;4.386;2023-06-14T13:02:42;4.22;;;3.22;;
14472;SDS011;7322;50.872;4.386;2023-06-14T13:05:10;3.33;;;3.03;;
14472;SDS011;7322;50.872;4.386;2023-06-14T13:07:37;4.68;;;3.13;;
14472;SDS011;7322;50.872;4.386;2023-06-14T13:10:05;3.70;;;3.40;;
14472;SDS011;7322;50.872;4.386;2023-06-14T13:12:34;4.80;;;3.22;;
14472;SDS011;7322;50.872;4.386;2023-06-14T13:15:01;4.13;;;3.53;;
14472;SDS011;7322;50.872;4.386;2023-06-14T13:17:28;3.75;;;3.13;;
14472;SDS011;7322;50.872;4.386;2023-06-14T13:19:57;3.38;;;3.17;;
14472;SDS011;7322;50.872;4.386;2023-06-14T13:22:24;3.50;;;3.20;;
14472;SDS011;7322;50.872;4.386;2023-06-14T13:24:51;3.83;;;3.30;;
14472;SDS011;7322;50.872;4.386;2023-06-14T13:27:19;4.45;;;3.28;;
14472;SDS011;7322;50.872;4.386;2023-06-14T13:29:47;3.42;;;3.13;;
14472;SDS011;7322;50.872;4.386;2023-06-14T13:32:14;3.28;;;2.92;;
14472;SDS011;7322;50.872;4.386;2023-06-14T13:34:41;4.00;;;3.58;;
14472;SDS011;7322;50.872;4.386;2023-06-14T13:37:08;4.30;;;3.38;;
14472;SDS011;7322;50.872;4.386;2023-06-14T13:39:35;3.83;;;3.38;;
14472;SDS011;7322;50.872;4.386;2023-06-14T13:42:02;3.50;;;3.20;;
14472;SDS011;7322;50.872;4.386;2023-06-14T13:44:31;4.45;;;3.35;;
14472;SDS011;7322;50.872;4.386;2023-06-14T13:47:02;3.42;;;3.13;;
14472;SDS011;7322;50.872;4.386;2023-06-14T13:49:30;3.88;;;2.92;;
14472;SDS011;7322;50.872;4.386;2023-06-14T13:51:57;3.95;;;3.35;;
14472;SDS011;7322;50.872;4.386;2023-06-14T13:54:24;3.58;;;2.95;;
14472;SDS011;7322;50.872;4.386;2023-06-14T13:56:51;4.28;;;3.25;;
14472;SDS011;7322;50.872;4.386;2023-06-14T13:59:18;3.67;;;3.10;;
14472;SDS011;7322;50.872;4.386;2023-06-14T14:01:45;3.30;;;3.00;;
14472;SDS011;7322;50.872;4.386;2023-06-14T14:04:14;3.55;;;3.25;;
14472;SDS011;7322;50.872;4.386;2023-06-14T14:06:41;3.95;;;3.00;;
14472;SDS011;7322;50.872;4.386;2023-06-14T14:09:09;3.47;;;3.17;;
14472;SDS011;7322;50.872;4.386;2023-06-14T14:11:35;4.55;;;3.33;;
14472;SDS011;7322;50.872;4.386;2023-06-14T14:14:04;3.65;;;3.20;;
14472;SDS011;7322;50.872;4.386;2023-06-14T14:16:32;3.75;;;3.10;;
14472;SDS011;7322;50.872;4.386;2023-06-14T14:19:00;4.03;;;3.63;;
14472;SDS011;7322;50.872;4.386;2023-06-14T14:21:29;3.85;;;3.00;;
14472;SDS011;7322;50.872;4.386;2023-06-14T14:23:56;3.35;;;2.92;;
14472;SDS011;7322;50.872;4.386;2023-06-14T14:26:24;3.40;;;3.10;;
14472;SDS011;7322;50.872;4.386;2023-06-14T14:28:51;3.70;;;3.40;;
14472;SDS011;7322;50.872;4.386;2023-06-14T14:31:18;4.10;;;3.22;;
14472;SDS011;7322;50.872;4.386;2023-06-14T14:33:45;3.85;;;3.22;;
14472;SDS011;7322;50.872;4.386;2023-06-14T14:36:12;5.30;;;3.28;;
14472;SDS011;7322;50.872;4.386;2023-06-14T14:38:47;3.95;;;3.08;;
14472;SDS011;7322;50.872;4.386;2023-06-14T14:41:16;3.47;;;3.10;;
14472;SDS011;7322;50.872;4.386;2023-06-14T14:43:43;4.88;;;3.00;;
14472;SDS011;7322;50.872;4.386;2023-06-14T14:48:58;4.45;;;3.25;;
14472;SDS011;7322;50.872;4.386;2023-06-14T14:51:27;4.80;;;3.30;;
14472;SDS011;7322;50.872;4.386;2023-06-14T14:54:05;2.95;;;2.72;;
14472;SDS011;7322;50.872;4.386;2023-06-14T14:56:32;3.65;;;3.10;;
14472;SDS011;7322;50.872;4.386;2023-06-14T14:59:06;4.50;;;3.00;;
14472;SDS011;7322;50.872;4.386;2023-06-14T15:01:41;4.38;;;3.00;;
14472;SDS011;7322;50.872;4.386;2023-06-14T15:09:42;5.22;;;2.95;;
14472;SDS011;7322;50.872;4.386;2023-06-14T15:14:57;3.30;;;2.78;;
14472;SDS011;7322;50.872;4.386;2023-06-14T15:17:34;3.88;;;2.90;;
14472;SDS011;7322;50.872;4.386;2023-06-14T15:20:01;4.78;;;3.15;;
14472;SDS011;7322;50.872;4.386;2023-06-14T15:22:33;3.00;;;2.67;;
14472;SDS011;7322;50.872;4.386;2023-06-14T15:25:07;3.08;;;2.78;;
14472;SDS011;7322;50.872;4.386;2023-06-14T15:32:38;3.28;;;2.78;;
14472;SDS011;7322;50.872;4.386;2023-06-14T15:35:12;3.10;;;2.80;;
14472;SDS011;7322;50.872;4.386;2023-06-14T15:37:39;5.50;;;3.25;;
14472;SDS011;7322;50.872;4.386;2023-06-14T15:42:49;3.25;;;2.70;;
14472;SDS011;7322;50.872;4.386;2023-06-14T15:45:22;3.95;;;3.22;;
14472;SDS011;7322;50.872;4.386;2023-06-14T15:47:49;5.28;;;3.20;;
14472;SDS011;7322;50.872;4.386;2023-06-14T15:50:21;3.10;;;2.80;;
14472;SDS011;7322;50.872;4.386;2023-06-14T15:52:48;3.83;;;2.97;;
14472;SDS011;7322;50.872;4.386;2023-06-14T15:55:18;3.80;;;2.80;;
14472;SDS011;7322;50.872;4.386;2023-06-14T15:57:57;2.88;;;2.22;;
14472;SDS011;7322;50.872;4.386;2023-06-14T16:00:25;4.07;;;2.97;;
14472;SDS011;7322;50.872;4.386;2023-06-14T16:02:52;3.00;;;2.70;;
14472;SDS011;7322;50.872;4.386;2023-06-14T16:05:19;3.38;;;2.70;;
14472;SDS011;7322;50.872;4.386;2023-06-14T16:07:46;2.80;;;2.60;;
14472;SDS011;7322;50.872;4.386;2023-06-14T16:10:14;3.03;;;2.70;;
14472;SDS011;7322;50.872;4.386;2023-06-14T16:12:42;4.82;;;3.10;;
14472;SDS011;7322;50.872;4.386;2023-06-14T16:15:10;3.75;;;3.20;;
14472;SDS011;7322;50.872;4.386;2023-06-14T16:17:38;4.00;;;2.78;;
14472;SDS011;7322;50.872;4.386;2023-06-14T16:20:10;3.13;;;2.83;;
14472;SDS011;7322;50.872;4.386;2023-06-14T16:22:38;4.90;;;3.03;;
14472;SDS011;7322;50.872;4.386;2023-06-14T16:25:06;3.42;;;2.70;;
14472;SDS011;7322;50.872;4.386;2023-06-14T16:27:40;3.85;;;2.97;;
14472;SDS011;7322;50.872;4.386;2023-06-14T16:30:13;5.93;;;3.17;;
14472;SDS011;7322;50.872;4.386;2023-06-14T16:32:44;3.47;;;2.70;;
14472;SDS011;7322;50.872;4.386;2023-06-14T16:35:24;5.53;;;3.30;;
14472;SDS011;7322;50.872;4.386;2023-06-14T16:41:04;3.58;;;2.75;;
14472;SDS011;7322;50.872;4.386;2023-06-14T16:46:04;3.40;;;2.80;;
14472;SDS011;7322;50.872;4.386;2023-06-14T16:51:18;4.32;;;2.58;;
14472;SDS011;7322;50.872;4.386;2023-06-14T16:53:56;4.20;;;2.75;;
14472;SDS011;7322;50.872;4.386;2023-06-14T16:56:25;3.72;;;2.80;;
14472;SDS011;7322;50.872;4.386;2023-06-14T16:58:57;4.82;;;2.58;;
14472;SDS011;7322;50.872;4.386;2023-06-14T17:01:33;4.07;;;2.67;;
14472;SDS011;7322;50.872;4.386;2023-06-14T17:04:01;3.67;;;2.70;;
14472;SDS011;7322;50.872;4.386;2023-06-14T17:06:29;4.28;;;2.95;;
14472;SDS011;7322;50.872;4.386;2023-06-14T17:08:56;6.03;;;3.00;;
14472;SDS011;7322;50.872;4.386;2023-06-14T17:11:23;4.55;;;2.70;;
14472;SDS011;7322;50.872;4.386;2023-06-14T17:16:38;3.45;;;2.45;;
14472;SDS011;7322;50.872;4.386;2023-06-14T17:19:06;3.17;;;2.80;;
14472;SDS011;7322;50.872;4.386;2023-06-14T17:24:33;3.60;;;2.65;;
14472;SDS011;7322;50.872;4.386;2023-06-14T17:27:00;4.03;;;2.45;;
14472;SDS011;7322;50.872;4.386;2023-06-14T17:29:30;5.40;;;2.83;;
14472;SDS011;7322;50.872;4.386;2023-06-14T17:32:00;6.90;;;2.72;;
14472;SDS011;7322;50.872;4.386;2023-06-14T17:34:29;5.10;;;2.58;;
14472;SDS011;7322;50.872;4.386;2023-06-14T17:36:56;4.55;;;2.83;;
14472;SDS011;7322;50.872;4.386;2023-06-14T17:39:23;4.80;;;2.60;;